createdAt,value
2018-06-04T00:00:15.202Z,3.33
2018-06-04T00:11:11.288Z,3.33
2018-06-04T00:22:13.796Z,3.33
2018-06-04T00:33:11.806Z,3.32
2018-06-04T00:44:14.201Z,3.32
2018-06-04T00:55:11.264Z,3.32
2018-06-04T01:06:12.776Z,3.32
2018-06-04T01:17:16.258Z,3.32
2018-06-04T01:28:19.384Z,3.32
2018-06-04T01:39:23.164Z,3.31
2018-06-04T01:50:21.689Z,3.31
2018-06-04T02:01:20.742Z,3.31
2018-06-04T02:12:20.012Z,3.30
2018-06-04T02:23:20.144Z,3.30
2018-06-04T02:34:18.676Z,3.30
2018-06-04T02:45:22.244Z,3.30
2018-06-04T02:56:22.516Z,3.30
2018-06-04T03:07:23.333Z,3.29
2018-06-04T03:18:26.078Z,3.29
2018-06-04T03:29:22.906Z,3.29
2018-06-04T03:40:22.068Z,3.29
2018-06-04T03:51:20.778Z,3.29
2018-06-04T04:02:21.734Z,3.29
2018-06-04T04:13:23.553Z,3.29
2018-06-04T04:24:28.091Z,3.29
2018-06-04T04:35:31.039Z,3.30
2018-06-04T04:46:29.376Z,3.30
2018-06-04T04:57:26.068Z,3.30
2018-06-04T05:08:29.075Z,3.30
2018-06-04T05:19:29.642Z,3.31
2018-06-04T05:30:31.534Z,3.31
2018-06-04T05:41:34.380Z,3.32
2018-06-04T05:52:36.832Z,3.33
2018-06-04T06:03:41.448Z,3.33
2018-06-04T06:14:41.081Z,3.34
2018-06-04T06:25:40.294Z,3.34
2018-06-04T06:36:43.462Z,3.34
2018-06-04T06:47:44.126Z,3.36
2018-06-04T06:58:43.285Z,3.36
2018-06-04T07:09:47.206Z,3.37
2018-06-04T07:20:49.670Z,3.37
2018-06-04T07:31:49.148Z,3.38
2018-06-04T07:42:49.529Z,3.39
2018-06-04T07:53:47.878Z,3.40
2018-06-04T08:04:44.744Z,3.40
2018-06-04T08:15:38.129Z,3.40
2018-06-04T08:26:42.483Z,3.40
2018-06-04T08:37:44.644Z,3.42
2018-06-04T08:48:46.050Z,3.44
2018-06-04T08:59:46.660Z,3.45
2018-06-04T09:10:51.201Z,3.42
2018-06-04T09:21:52.425Z,3.40
2018-06-04T09:32:54.406Z,3.40
2018-06-04T09:43:58.109Z,3.46
2018-06-04T09:54:58.036Z,3.42
2018-06-04T10:05:59.339Z,3.41
2018-06-04T10:17:02.710Z,3.41
2018-06-04T10:28:06.483Z,3.40
2018-06-04T10:39:11.792Z,3.40
2018-06-04T10:50:11.318Z,3.40
2018-06-04T11:01:11.052Z,3.40
2018-06-04T11:12:14.199Z,3.42
2018-06-04T11:23:13.948Z,3.41
2018-06-04T11:34:11.096Z,3.40
2018-06-04T11:45:06.948Z,3.40
2018-06-04T11:56:09.698Z,3.40
2018-06-04T12:07:09.661Z,3.40
2018-06-04T12:17:54.402Z,3.40
2018-06-04T12:28:37.224Z,3.40
2018-06-04T12:39:42.984Z,3.40
2018-06-04T12:50:25.396Z,3.39
2018-06-04T13:01:13.418Z,3.40
2018-06-04T13:11:54.841Z,3.41
2018-06-04T13:22:58.957Z,3.40
2018-06-04T13:33:56.820Z,3.40
2018-06-04T13:44:54.381Z,3.40
2018-06-04T13:55:54.775Z,3.40
2018-06-04T14:06:52.478Z,3.41
2018-06-04T14:17:54.706Z,3.40
2018-06-04T14:28:49.162Z,3.40
2018-06-04T14:39:48.305Z,3.40
2018-06-04T14:50:39.786Z,3.39
2018-06-04T15:01:32.778Z,3.39
2018-06-04T15:12:27.201Z,3.39
2018-06-04T15:23:23.512Z,3.38
2018-06-04T15:34:18.399Z,3.38
2018-06-04T15:45:13.291Z,3.37
2018-06-04T15:56:13.891Z,3.37
2018-06-04T16:07:17.036Z,3.37
2018-06-04T16:18:10.655Z,3.37
2018-06-04T16:29:07.933Z,3.37
2018-06-04T16:40:05.234Z,3.37
2018-06-04T16:51:02.923Z,3.37
2018-06-04T17:02:08.320Z,3.35
2018-06-04T17:13:02.697Z,3.37
2018-06-04T17:23:52.639Z,3.37
2018-06-04T17:34:51.357Z,3.37
2018-06-04T17:45:53.481Z,3.37
2018-06-04T17:56:55.545Z,3.37
2018-06-04T18:07:43.449Z,3.36
2018-06-04T18:18:41.920Z,3.36
2018-06-04T18:29:34.854Z,3.36
2018-06-04T18:40:32.953Z,3.36
2018-06-04T18:51:26.191Z,3.35
2018-06-04T19:02:27.163Z,3.34
2018-06-04T19:13:17.612Z,3.34
2018-06-04T19:24:12.045Z,3.34
2018-06-04T19:35:08.840Z,3.34
2018-06-04T19:46:08.722Z,3.33
2018-06-04T19:57:07.921Z,3.33
2018-06-04T20:08:05.413Z,3.33
2018-06-04T20:19:05.501Z,3.33
2018-06-04T20:30:06.376Z,3.33
2018-06-04T20:41:05.279Z,3.33
2018-06-04T20:52:02.197Z,3.33
2018-06-04T21:02:58.146Z,3.32
2018-06-04T21:13:54.321Z,3.32
2018-06-04T21:24:55.732Z,3.32
2018-06-04T21:35:49.758Z,3.32
2018-06-04T21:46:50.495Z,3.32
2018-06-04T21:57:55.043Z,3.31
2018-06-04T22:08:58.503Z,3.31
2018-06-04T22:20:01.393Z,3.30
2018-06-04T22:31:01.991Z,3.30
2018-06-04T22:42:00.509Z,3.30
2018-06-04T22:52:56.673Z,3.30
2018-06-04T23:03:54.281Z,3.30
2018-06-04T23:14:58.134Z,3.30
2018-06-04T23:26:01.564Z,3.29
2018-06-04T23:37:05.755Z,3.29
2018-06-04T23:48:08.064Z,3.29
2018-06-04T23:59:08.703Z,3.29
